Time;durP1;ratioP1;P1;durP2;ratioP2;P2;SDS_P1;SDS_P2;PMS_P1;PMS_P2;Temp;Humidity;BMP_temperature;BMP_pressure;BME280_temperature;BME280_humidity;BME280_pressure;Samples;Min_cycle;Max_cycle;Signal;HPM_P1;HPM_P2
2023/11/29 00:01:23;;;;;;;12.60;5.60;;;;;;;9.90;85.15;98960.63;106268;1253;59989;-84
2023/11/29 00:03:51;;;;;;;17.60;7.20;;;;;;;9.88;85.41;98957.79;106233;1254;71783;-79
2023/11/29 00:06:19;;;;;;;10.80;5.40;;;;;;;9.73;86.40;98953.14;106072;1257;67389;-79
2023/11/29 00:08:47;;;;;;;16.00;5.90;;;;;;;9.60;87.22;98951.65;106247;1254;72699;-84
2023/11/29 00:11:15;;;;;;;12.60;6.50;;;;;;;9.51;88.15;98944.50;106267;1254;60835;-84
2023/11/29 00:13:42;;;;;;;10.90;6.00;;;;;;;9.47;88.49;98944.21;106360;1254;60066;-83
2023/11/29 00:16:10;;;;;;;18.70;7.50;;;;;;;9.26;89.82;98940.76;106325;1254;73049;-79
2023/11/29 00:18:38;;;;;;;13.00;5.90;;;;;;;9.16;91.25;98936.18;106172;1254;68537;-83
2023/11/29 00:21:06;;;;;;;14.40;6.40;;;;;;;9.27;90.57;98931.59;106123;1255;72667;-79
2023/11/29 00:23:34;;;;;;;10.40;6.20;;;;;;;9.12;91.36;98924.34;106370;1256;59899;-84
2023/11/29 00:26:02;;;;;;;11.60;7.00;;;;;;;9.04;92.16;98921.69;106398;1254;59696;-83
2023/11/29 00:28:30;;;;;;;21.80;8.20;;;;;;;9.09;91.94;98915.80;106293;1254;71881;-83
2023/11/29 00:30:59;;;;;;;16.90;7.80;;;;;;;9.23;90.90;98908.63;106167;1254;68641;-80
2023/11/29 00:33:27;;;;;;;14.10;7.00;;;;;;;9.24;90.32;98903.67;106380;1254;72749;-84
2023/11/29 00:35:55;;;;;;;11.20;6.50;;;;;;;9.27;90.03;98898.05;106308;1258;59723;-84
2023/11/29 00:38:23;;;;;;;9.80;5.40;;;;;;;9.35;89.33;98896.73;106370;1255;60515;-84
2023/11/29 00:40:51;;;;;;;14.60;5.70;;;;;;;9.45;88.46;98889.27;106589;1259;73178;-79
2023/11/29 00:43:19;;;;;;;11.50;4.50;;;;;;;9.49;87.72;98883.75;106392;1254;67521;-79
2023/11/29 00:45:46;;;;;;;9.20;4.00;;;;;;;9.59;86.45;98879.02;106345;1254;72618;-79
2023/11/29 00:48:15;;;;;;;8.90;3.90;;;;;;;9.48;86.88;98875.92;106256;1256;61076;-79
2023/11/29 00:50:42;;;;;;;11.40;4.40;;;;;;;9.38;88.16;98871.63;106311;1259;59600;-80
2023/11/29 00:53:10;;;;;;;13.90;3.90;;;;;;;9.37;87.98;98869.91;106304;1255;73128;-79
2023/11/29 00:55:38;;;;;;;7.80;3.20;;;;;;;9.27;88.48;98859.29;106223;1254;68655;-84
2023/11/29 00:58:05;;;;;;;9.80;3.70;;;;;;;9.18;88.99;98859.13;106326;1255;72705;-84
2023/11/29 01:00:34;;;;;;;15.60;4.20;;;;;;;9.12;89.61;98849.59;106121;1254;60950;-79
2023/11/29 10:37:24;;;;;;;3.30;2.80;;;;;;;11.02;79.27;98506.13;106378;1259;72678;-80
2023/11/29 10:39:58;;;;;;;3.90;3.20;;;;;;;10.82;78.54;98509.39;106409;1254;60885;-80
2023/11/29 10:42:37;;;;;;;4.00;3.60;;;;;;;10.60;78.83;98516.23;106315;1255;60935;-82
2023/11/29 10:45:21;;;;;;;4.80;3.90;;;;;;;10.57;77.79;98522.48;106437;1259;76164;-81
2023/11/29 10:48:01;;;;;;;3.80;3.30;;;;;;;10.49;77.25;98530.49;106322;1254;70950;-79
2023/11/29 10:50:38;;;;;;;4.10;3.20;;;;;;;10.31;77.75;98543.48;106459;1257;72718;-81
2023/11/29 10:53:18;;;;;;;5.20;3.80;;;;;;;10.51;76.17;98551.98;106397;1254;59448;-79
2023/11/29 10:55:58;;;;;;;4.80;3.70;;;;;;;10.18;77.81;98560.37;106279;1259;61069;-80
2023/11/29 10:59:04;;;;;;;6.60;4.50;;;;;;;10.09;78.79;98568.20;106584;1260;75327;-79
2023/11/29 11:01:38;;;;;;;7.70;4.70;;;;;;;10.15;77.66;98574.72;106758;1254;71730;-81
2023/11/29 11:04:12;;;;;;;6.40;4.30;;;;;;;10.15;77.60;98577.34;106691;1254;71458;-79
2023/11/29 11:06:52;;;;;;;6.70;4.80;;;;;;;10.15;77.80;98586.34;106531;1257;60539;-81
2023/11/29 11:09:42;;;;;;;7.20;4.40;;;;;;;10.15;77.51;98597.16;106372;1260;62337;-80
2023/11/29 11:12:37;;;;;;;6.90;4.90;;;;;;;10.17;77.64;98602.70;106402;1252;75627;-81
2023/11/29 11:15:28;;;;;;;8.20;5.40;;;;;;;10.02;78.23;98614.05;106527;1252;67223;-80
2023/11/29 11:18:08;;;;;;;8.50;4.90;;;;;;;10.26;75.96;98622.78;106391;1261;71531;-80
2023/11/29 11:21:08;;;;;;;8.60;5.60;;;;;;;10.22;75.40;98627.41;106291;1253;61250;-80
2023/11/29 11:23:48;;;;;;;8.60;6.10;;;;;;;9.89;77.78;98625.33;106316;1254;60837;-81
2023/11/29 11:26:22;;;;;;;9.40;6.20;;;;;;;10.05;77.00;98633.54;106671;1257;74826;-79
2023/11/29 11:28:56;;;;;;;10.10;6.30;;;;;;;10.11;76.74;98638.16;106297;1259;70747;-81
2023/11/29 11:31:36;;;;;;;10.70;6.50;;;;;;;9.97;78.36;98647.35;106305;1254;75050;-79
2023/11/29 11:34:16;;;;;;;11.70;7.40;;;;;;;9.91;80.63;98648.86;106438;1254;60475;-79
2023/11/29 11:36:50;;;;;;;11.00;6.70;;;;;;;10.08;80.10;98653.48;106507;1254;61225;-81
2023/11/29 11:39:30;;;;;;;10.50;6.50;;;;;;;10.07;80.19;98653.80;106286;1260;73896;-81
2023/11/29 11:42:10;;;;;;;12.80;7.90;;;;;;;10.16;79.56;98660.66;106508;1256;71038;-80
2023/11/29 11:44:50;;;;;;;11.20;7.20;;;;;;;10.01;80.76;98662.43;106425;1254;73293;-81
2023/11/29 11:47:23;;;;;;;13.30;8.20;;;;;;;10.02;80.44;98670.25;106228;1259;61381;-81
2023/11/29 11:49:57;;;;;;;12.10;8.10;;;;;;;9.82;81.35;98673.94;106490;1253;62295;-82
2023/11/29 11:52:41;;;;;;;14.30;8.40;;;;;;;9.69;81.68;98679.30;106477;1252;72618;-82
2023/11/29 11:55:21;;;;;;;13.70;8.10;;;;;;;9.56;82.45;98678.73;106573;1251;69335;-80
2023/11/29 11:57:58;;;;;;;16.00;9.60;;;;;;;9.45;82.48;98686.43;106231;1259;71797;-82
2023/11/29 12:00:30;;;;;;;16.60;9.70;;;;;;;9.27;83.24;98683.27;106206;1258;60517;-81
2023/11/29 12:03:10;;;;;;;14.20;9.10;;;;;;;9.20;83.29;98690.42;106373;1257;60520;-81
2023/11/29 12:05:50;;;;;;;16.70;9.90;;;;;;;9.12;83.26;98693.88;106358;1254;72713;-81
2023/11/29 12:08:30;;;;;;;16.00;9.70;;;;;;;9.15;82.42;98700.44;106573;1257;69584;-81
2023/11/29 12:11:07;;;;;;;15.90;9.90;;;;;;;9.23;80.56;98713.91;106385;1260;72342;-79
2023/11/29 12:13:42;;;;;;;14.50;8.90;;;;;;;9.05;80.21;98715.19;106326;1254;61745;-81
2023/11/29 12:16:26;;;;;;;22.80;11.30;;;;;;;8.98;79.98;98718.19;106411;1251;60625;-81
2023/11/29 12:19:07;;;;;;;18.80;10.80;;;;;;;8.96;78.95;98724.89;106483;1254;74873;-79
2023/11/29 12:21:41;;;;;;;18.60;9.80;;;;;;;9.03;78.03;98726.40;106642;1253;68462;-81
2023/11/29 12:24:14;;;;;;;29.10;14.30;;;;;;;9.09;77.76;98737.55;106791;1254;75010;-82
2023/11/29 12:26:57;;;;;;;20.10;11.50;;;;;;;9.16;76.85;98745.81;106437;1259;60491;-80
2023/11/29 12:29:40;;;;;;;16.70;9.40;;;;;;;9.19;76.96;98754.96;106380;1254;60448;-81
2023/11/29 12:32:15;;;;;;;15.40;8.60;;;;;;;9.25;76.41;98759.80;106526;1254;75803;-80
2023/11/29 12:34:43;;;;;;;15.40;9.00;;;;;;;9.28;75.29;98767.91;106418;1257;67653;-80
2023/11/29 12:37:26;;;;;;;16.30;9.50;;;;;;;9.27;74.61;98771.52;106298;1253;73340;-80
2023/11/29 12:40:09;;;;;;;17.90;9.60;;;;;;;9.23;74.50;98773.71;106411;1254;62334;-78
2023/11/29 12:42:50;;;;;;;16.10;9.20;;;;;;;9.30;73.94;98776.92;106386;1253;60535;-79
2023/11/29 12:45:18;;;;;;;18.40;10.10;;;;;;;9.20;73.82;98781.10;106350;1254;72647;-80
2023/11/29 12:48:08;;;;;;;18.70;10.70;;;;;;;9.16;73.44;98794.06;106680;1257;68696;-80
2023/11/29 12:50:48;;;;;;;15.60;10.10;;;;;;;9.20;73.34;98800.60;106337;1257;73906;-79
2023/11/29 12:53:28;;;;;;;18.00;10.20;;;;;;;9.18;72.94;98800.39;106451;1254;60540;-78
2023/11/29 12:56:02;;;;;;;16.80;11.20;;;;;;;9.25;71.81;98804.06;106496;1257;62307;-81
2023/11/29 12:58:30;;;;;;;20.00;12.50;;;;;;;9.29;70.71;98810.56;106394;1255;74020;-79
2023/11/29 13:01:04;;;;;;;18.40;10.80;;;;;;;9.29;70.09;98823.77;106238;1253;67217;-80
2023/11/29 13:03:44;;;;;;;16.70;9.90;;;;;;;9.27;69.67;98836.84;106349;1254;71601;-79
2023/11/29 13:06:12;;;;;;;17.20;10.90;;;;;;;9.28;69.26;98852.17;106396;1256;60639;-80
2023/11/29 13:08:52;;;;;;;19.50;10.80;;;;;;;9.22;68.81;98859.02;106357;1254;60549;-80
2023/11/29 13:11:20;;;;;;;20.20;10.70;;;;;;;9.21;68.38;98863.48;106310;1255;72639;-79
2023/11/29 13:13:54;;;;;;;19.60;11.60;;;;;;;9.09;69.03;98863.44;106271;1254;69946;-79
2023/11/29 13:16:34;;;;;;;18.80;10.90;;;;;;;9.14;68.01;98864.03;106307;1255;73792;-79
2023/11/29 13:19:14;;;;;;;17.60;10.60;;;;;;;9.18;67.21;98870.95;106217;1258;60584;-81
2023/11/29 13:21:54;;;;;;;19.70;10.70;;;;;;;9.20;66.28;98865.42;106417;1254;61397;-80
2023/11/29 13:24:29;;;;;;;18.20;10.10;;;;;;;9.23;65.42;98876.17;106212;1258;76172;-79
2023/11/29 13:27:05;;;;;;;18.60;10.30;;;;;;;9.22;64.05;98881.11;106346;1251;68439;-81
2023/11/29 13:29:46;;;;;;;18.70;10.90;;;;;;;9.28;63.27;98890.73;106385;1254;73557;-79
2023/11/29 13:32:26;;;;;;;17.70;10.10;;;;;;;9.15;63.19;98893.48;107086;1253;61678;-81
2023/11/29 13:35:00;;;;;;;16.00;9.90;;;;;;;9.09;62.54;98895.16;106266;1255;60549;-80
2023/11/29 13:37:27;;;;;;;14.80;9.20;;;;;;;9.01;61.90;98905.19;106051;1253;75815;-77
2023/11/29 13:43:07;;;;;;;12.50;7.90;;;;;;;8.83;61.07;98912.02;106588;1254;74707;-81
2023/11/29 13:45:48;;;;;;;13.10;7.80;;;;;;;8.81;60.28;98917.60;107008;1258;60513;-80
2023/11/29 13:48:21;;;;;;;10.60;6.70;;;;;;;8.80;59.62;98924.42;106358;1254;61333;-79
2023/11/29 13:50:56;;;;;;;12.30;7.50;;;;;;;8.76;59.05;98927.59;106290;1254;73844;-80
2023/11/29 13:53:36;;;;;;;10.30;7.10;;;;;;;8.83;58.15;98932.59;106348;1253;68075;-79
2023/11/29 13:56:16;;;;;;;12.70;7.20;;;;;;;8.82;57.97;98938.04;106241;1256;73352;-81
2023/11/29 13:58:50;;;;;;;11.00;6.80;;;;;;;8.80;58.07;98950.54;106237;1258;60555;-81
2023/11/29 14:01:24;;;;;;;10.60;6.90;;;;;;;8.71;58.13;98971.04;106216;1254;60498;-79
2023/11/29 14:04:03;;;;;;;10.60;6.80;;;;;;;8.61;58.23;98971.73;106302;1254;74707;-80
2023/11/29 14:06:38;;;;;;;11.30;7.20;;;;;;;8.61;58.24;98979.06;106327;1257;68828;-80
2023/11/29 14:09:07;;;;;;;14.00;7.80;;;;;;;8.51;58.38;98979.90;106357;1259;74976;-81
2023/11/29 14:11:47;;;;;;;10.60;6.70;;;;;;;8.36;58.91;98983.39;106256;1254;62158;-81
2023/11/29 14:14:21;;;;;;;12.20;8.30;;;;;;;8.30;59.16;98994.10;106298;1254;60440;-81
2023/11/29 14:17:01;;;;;;;12.60;7.60;;;;;;;8.28;59.20;99001.64;106429;1258;73910;-82
2023/11/29 14:19:29;;;;;;;11.30;7.10;;;;;;;8.04;60.41;99004.50;106182;1253;69918;-81
2023/11/29 14:22:09;;;;;;;11.40;7.10;;;;;;;8.03;60.82;99004.13;106187;1254;74871;-80
2023/11/29 14:24:43;;;;;;;11.90;7.20;;;;;;;8.02;60.96;99018.04;106253;1254;60530;-81
2023/11/29 14:27:22;;;;;;;12.60;7.90;;;;;;;8.11;60.82;99027.73;106360;1253;60379;-80
2023/11/29 14:29:57;;;;;;;11.00;7.20;;;;;;;8.25;60.25;99042.25;106323;1254;74992;-80
2023/11/29 14:32:37;;;;;;;10.40;7.00;;;;;;;8.20;60.44;99050.70;106396;1254;69938;-80
2023/11/29 14:35:17;;;;;;;11.20;7.10;;;;;;;7.96;61.59;99054.90;106440;1258;71418;-80
2023/11/29 22:35:39;;;;;;;7.30;3.00;;;;;;;6.72;45.38;100000.98;106374;1254;60504;-80
2023/11/29 22:38:19;;;;;;;7.40;3.00;;;;;;;6.60;45.85;100008.58;106506;1258;60466;-80
2023/11/29 22:40:53;;;;;;;6.60;3.00;;;;;;;6.60;45.86;100011.57;106431;1256;73862;-81
2023/11/29 22:43:32;;;;;;;5.50;3.20;;;;;;;6.64;45.93;100017.73;106287;1256;67290;-81
2023/11/29 22:46:12;;;;;;;7.20;3.50;;;;;;;6.76;46.01;100022.23;106325;1254;72577;-81
2023/11/29 22:48:46;;;;;;;6.30;3.40;;;;;;;6.78;46.16;100029.67;106249;1254;60937;-81
2023/11/29 22:51:27;;;;;;;7.50;3.00;;;;;;;6.92;46.03;100033.88;106900;1254;60437;-81
2023/11/29 22:54:07;;;;;;;5.60;3.20;;;;;;;6.94;45.78;100038.55;106306;1254;75311;-81
2023/11/29 22:56:41;;;;;;;7.60;3.70;;;;;;;6.98;46.00;100040.48;106317;1254;70709;-81
2023/11/29 22:59:21;;;;;;;7.00;3.40;;;;;;;6.96;45.83;100038.79;106169;1258;72605;-80
2023/11/29 23:01:53;;;;;;;6.60;3.70;;;;;;;7.12;45.24;100042.33;106321;1254;60436;-80
2023/11/29 23:04:33;;;;;;;8.00;3.20;;;;;;;6.96;45.33;100037.75;106439;1256;60464;-81
2023/11/29 23:07:13;;;;;;;8.20;3.50;;;;;;;6.96;45.22;100037.05;106724;1252;74366;-83
2023/11/29 23:09:46;;;;;;;6.80;3.50;;;;;;;6.85;45.27;100034.01;106355;1257;68436;-80
2023/11/29 23:12:26;;;;;;;6.80;3.40;;;;;;;6.91;45.01;100037.34;106274;1258;72118;-81
2023/11/29 23:15:06;;;;;;;5.90;3.10;;;;;;;6.76;45.36;100043.73;106296;1254;60470;-81
2023/11/29 23:17:40;;;;;;;5.70;3.10;;;;;;;6.63;45.62;100049.59;106327;1254;60526;-80
2023/11/29 23:20:20;;;;;;;7.30;3.40;;;;;;;6.57;45.47;100056.45;106277;1252;74314;-80
2023/11/29 23:22:53;;;;;;;6.30;3.40;;;;;;;6.58;45.28;100059.34;106358;1254;67257;-80
2023/11/29 23:25:27;;;;;;;7.20;3.50;;;;;;;6.41;45.47;100068.69;106343;1258;71395;-80
2023/11/29 23:28:07;;;;;;;6.60;3.10;;;;;;;6.35;45.55;100068.85;106250;1254;60861;-80
2023/11/29 23:30:40;;;;;;;7.70;3.70;;;;;;;6.30;45.70;100076.08;106617;1253;60499;-81
2023/11/29 23:33:20;;;;;;;6.30;3.40;;;;;;;6.31;45.45;100084.94;106232;1259;73752;-80
2023/11/29 23:36:00;;;;;;;9.00;3.50;;;;;;;6.29;45.43;100086.49;106437;1256;67343;-81
2023/11/29 23:38:30;;;;;;;7.10;3.60;;;;;;;6.24;45.64;100088.08;106289;1257;72686;-80
2023/11/29 23:41:10;;;;;;;7.40;3.20;;;;;;;6.25;45.36;100090.00;106291;1254;61687;-80
2023/11/29 23:43:50;;;;;;;6.40;3.60;;;;;;;6.27;45.28;100097.89;106419;1252;61410;-81
2023/11/29 23:46:23;;;;;;;8.20;3.80;;;;;;;6.22;45.76;100098.98;106082;1254;72623;-80
2023/11/29 23:49:05;;;;;;;7.20;3.20;;;;;;;6.24;45.36;100102.30;106341;1254;66257;-83
2023/11/29 23:51:39;;;;;;;6.70;4.30;;;;;;;6.40;44.74;100107.20;106350;1254;71393;-79
2023/11/29 23:54:17;;;;;;;8.60;3.80;;;;;;;6.21;45.01;100109.72;106212;1262;60544;-80
2023/11/29 23:56:57;;;;;;;7.50;3.40;;;;;;;6.17;45.18;100112.27;106159;1254;60612;-80
2023/11/29 23:59:31;;;;;;;11.40;4.40;;;;;;;5.97;45.21;100113.79;106294;1259;72002;-80
